Time;durP1;ratioP1;P1;durP2;ratioP2;P2;SDS_P1;SDS_P2;PMS_P1;PMS_P2;Temp;Humidity;BMP_temperature;BMP_pressure;BME280_temperature;BME280_humidity;BME280_pressure;Samples;Min_cycle;Max_cycle;Signal;HPM_P1;HPM_P2
2024/01/31 00:03:25;;;;;;;60.67;26.53;;;;;4.20;97796.00;;;;8366484;28;20696;-83
2024/01/31 00:07:28;;;;;;;53.73;26.17;;;;;4.20;97806.00;;;;8367591;28;20345;-82
2024/01/31 00:11:32;;;;;;;53.90;26.53;;;;;4.10;97805.00;;;;8366730;28;20227;-82
2024/01/31 00:15:36;;;;;;;60.13;26.70;;;;;4.20;97812.00;;;;8367299;28;20612;-83
2024/01/31 00:19:39;;;;;;;54.43;26.70;;;;;4.20;97810.00;;;;8366620;28;20235;-84
2024/01/31 00:23:42;;;;;;;52.93;27.57;;;;;4.20;97801.00;;;;8366668;28;20280;-83
2024/01/31 00:27:46;;;;;;;54.83;26.47;;;;;4.20;97810.00;;;;8366052;28;20294;-84
2024/01/31 00:31:53;;;;;;;54.97;24.70;;;;;4.20;97806.00;;;;8366621;28;20584;-84
2024/01/31 00:35:56;;;;;;;53.37;26.03;;;;;4.20;97807.00;;;;8366528;28;20253;-84
2024/01/31 00:40:00;;;;;;;52.43;26.87;;;;;4.20;97808.00;;;;8365211;28;20255;-83
2024/01/31 00:44:03;;;;;;;56.27;26.63;;;;;4.30;97811.00;;;;8366747;28;20225;-86
2024/01/31 00:48:08;;;;;;;51.10;26.07;;;;;4.40;97815.00;;;;8365233;28;20293;-87
2024/01/31 00:52:11;;;;;;;49.87;25.23;;;;;4.40;97814.00;;;;8366118;28;20256;-87
2024/01/31 00:56:14;;;;;;;52.70;26.10;;;;;4.50;97812.00;;;;8366748;28;20250;-87
2024/01/31 01:00:18;;;;;;;54.47;26.63;;;;;4.60;97812.00;;;;8365570;28;20291;-87
2024/01/31 01:04:22;;;;;;;50.00;25.40;;;;;4.60;97821.00;;;;8366208;28;20329;-88
2024/01/31 01:08:27;;;;;;;48.10;24.90;;;;;4.70;97813.00;;;;8365747;28;20195;-88
2024/01/31 01:12:34;;;;;;;47.93;24.40;;;;;4.70;97818.00;;;;8365474;28;20641;-88
2024/01/31 01:16:37;;;;;;;49.03;25.47;;;;;4.80;97825.00;;;;8364866;28;20207;-88
2024/01/31 01:20:42;;;;;;;48.47;24.23;;;;;4.80;97814.00;;;;8364996;28;20200;-84
2024/01/31 01:24:46;;;;;;;49.20;23.87;;;;;4.80;97820.00;;;;8365796;28;20187;-91
2024/01/31 01:28:49;;;;;;;47.57;23.97;;;;;4.80;97814.00;;;;8365017;28;20200;-89
2024/01/31 01:32:52;;;;;;;49.63;24.10;;;;;4.80;97805.00;;;;8363114;28;20227;-90
2024/01/31 01:36:57;;;;;;;48.40;24.33;;;;;4.90;97808.00;;;;8363824;28;20212;-90
2024/01/31 01:41:00;;;;;;;45.53;23.83;;;;;4.90;97806.00;;;;8365466;28;20235;-91
2024/01/31 01:45:03;;;;;;;45.03;22.90;;;;;5.00;97801.00;;;;8366058;28;20228;-89
2024/01/31 01:49:06;;;;;;;47.57;24.60;;;;;5.00;97804.00;;;;8371635;28;20232;-91
2024/01/31 01:53:11;;;;;;;45.77;24.63;;;;;5.00;97792.00;;;;8371442;28;20266;-89
2024/01/31 01:57:15;;;;;;;48.40;23.90;;;;;5.10;97800.00;;;;8372115;28;20188;-89
2024/01/31 02:01:18;;;;;;;47.10;23.30;;;;;5.10;97801.00;;;;8370740;28;20286;-90
2024/01/31 02:05:22;;;;;;;50.97;24.43;;;;;5.10;97804.00;;;;8371767;28;20271;-93
2024/01/31 02:09:26;;;;;;;45.87;23.70;;;;;5.10;97799.00;;;;8371569;28;20197;-93
2024/01/31 02:13:30;;;;;;;47.40;23.33;;;;;5.10;97803.00;;;;8371911;28;20640;-92
2024/01/31 02:17:33;;;;;;;43.97;23.70;;;;;5.10;97806.00;;;;8371430;28;20203;-92
2024/01/31 02:21:39;;;;;;;46.13;23.67;;;;;5.20;97795.00;;;;8376741;28;20200;-95
2024/01/31 02:25:44;;;;;;;48.50;24.23;;;;;5.20;97795.00;;;;8377347;28;20192;-94
2024/01/31 02:29:47;;;;;;;41.07;22.70;;;;;5.20;97797.00;;;;8375287;28;20193;-94
2024/01/31 02:33:50;;;;;;;47.50;22.47;;;;;5.20;97804.00;;;;8377662;28;20231;-94
2024/01/31 02:37:53;;;;;;;45.63;22.50;;;;;5.20;97798.00;;;;8371037;28;20196;-94
2024/01/31 02:41:58;;;;;;;39.27;22.47;;;;;5.20;97793.00;;;;8373317;28;20685;-95
2024/01/31 02:46:01;;;;;;;42.00;22.10;;;;;5.20;97800.00;;;;8374796;28;20550;-95
2024/01/31 02:50:06;;;;;;;42.60;21.77;;;;;5.20;97794.00;;;;8379499;28;20192;-95
2024/01/31 02:54:09;;;;;;;46.20;25.33;;;;;5.10;97797.00;;;;8381513;28;20703;-95
2024/01/31 02:58:13;;;;;;;45.27;23.20;;;;;5.10;97798.00;;;;8382501;28;20680;-95
